sensor_id;sensor_type;location;lat;lon;timestamp;pressure;altitude;pressure_sealevel;temperature;humidity
77869;BME280;67231;59.144;37.934;2023-03-11T00:02:11;99811.63;;;-13.57;61.29
77869;BME280;67231;59.144;37.934;2023-03-11T00:04:37;99809.09;;;-13.63;61.62
77869;BME280;67231;59.144;37.934;2023-03-11T00:07:10;99818.47;;;-13.65;62.08
77869;BME280;67231;59.144;37.934;2023-03-11T00:09:37;99819.34;;;-13.72;61.39
77869;BME280;67231;59.144;37.934;2023-03-11T00:12:04;99815.09;;;-13.76;61.53
77869;BME280;67231;59.144;37.934;2023-03-11T00:14:30;99819.38;;;-13.81;61.76
77869;BME280;67231;59.144;37.934;2023-03-11T00:16:56;99827.91;;;-13.93;61.72
77869;BME280;67231;59.144;37.934;2023-03-11T00:19:22;99823.69;;;-13.96;62.34
77869;BME280;67231;59.144;37.934;2023-03-11T00:21:48;99825.34;;;-13.95;62.05
77869;BME280;67231;59.144;37.934;2023-03-11T00:24:15;99822.84;;;-13.96;61.61
77869;BME280;67231;59.144;37.934;2023-03-11T00:26:41;99827.94;;;-14.02;62.20
77869;BME280;67231;59.144;37.934;2023-03-11T00:29:07;99828.78;;;-14.05;62.08
77869;BME280;67231;59.144;37.934;2023-03-11T00:31:33;99825.41;;;-14.07;62.52
77869;BME280;67231;59.144;37.934;2023-03-11T00:33:59;99825.41;;;-14.10;61.43
77869;BME280;67231;59.144;37.934;2023-03-11T00:36:31;99819.47;;;-14.14;61.86
77869;BME280;67231;59.144;37.934;2023-03-11T00:39:01;99829.66;;;-14.14;61.31
77869;BME280;67231;59.144;37.934;2023-03-11T00:41:34;99822.03;;;-14.15;61.82
77869;BME280;67231;59.144;37.934;2023-03-11T00:44:00;99826.25;;;-14.11;62.26
77869;BME280;67231;59.144;37.934;2023-03-11T00:46:29;99820.31;;;-14.07;60.85
77869;BME280;67231;59.144;37.934;2023-03-11T00:48:56;99820.28;;;-14.01;61.21
77869;BME280;67231;59.144;37.934;2023-03-11T00:51:22;99818.56;;;-13.96;61.60
77869;BME280;67231;59.144;37.934;2023-03-11T00:53:48;99825.34;;;-13.92;61.04
77869;BME280;67231;59.144;37.934;2023-03-11T00:56:15;99827.88;;;-13.87;61.12
77869;BME280;67231;59.144;37.934;2023-03-11T00:58:43;99832.97;;;-13.81;60.82
77869;BME280;67231;59.144;37.934;2023-03-11T01:01:13;99824.47;;;-13.77;61.84
77869;BME280;67231;59.144;37.934;2023-03-11T01:03:40;99830.41;;;-13.73;60.91
77869;BME280;67231;59.144;37.934;2023-03-11T01:06:07;99831.22;;;-13.68;61.53
77869;BME280;67231;59.144;37.934;2023-03-11T01:08:34;99823.56;;;-13.65;61.34
77869;BME280;67231;59.144;37.934;2023-03-11T01:11:00;99831.19;;;-13.59;60.62
77869;BME280;67231;59.144;37.934;2023-03-11T01:13:28;99831.19;;;-13.54;60.97
77869;BME280;67231;59.144;37.934;2023-03-11T01:15:55;99834.59;;;-13.55;60.73
77869;BME280;67231;59.144;37.934;2023-03-11T01:18:21;99832.03;;;-13.57;61.38
77869;BME280;67231;59.144;37.934;2023-03-11T01:20:48;99831.19;;;-13.57;61.68
77869;BME280;67231;59.144;37.934;2023-03-11T01:23:16;99832.03;;;-13.57;60.87
77869;BME280;67231;59.144;37.934;2023-03-11T01:25:42;99833.75;;;-13.56;61.60
77869;BME280;67231;59.144;37.934;2023-03-11T01:28:09;99832.03;;;-13.57;61.67
77869;BME280;67231;59.144;37.934;2023-03-11T01:30:37;99837.16;;;-13.63;61.14
77869;BME280;67231;59.144;37.934;2023-03-11T01:33:05;99836.31;;;-13.63;61.77
77869;BME280;67231;59.144;37.934;2023-03-11T01:35:32;99840.59;;;-13.70;61.71
77869;BME280;67231;59.144;37.934;2023-03-11T01:38:00;99838.06;;;-13.73;62.23
77869;BME280;67231;59.144;37.934;2023-03-11T01:40:32;99834.66;;;-13.75;61.89
77869;BME280;67231;59.144;37.934;2023-03-11T01:43:04;99838.91;;;-13.77;62.00
77869;BME280;67231;59.144;37.934;2023-03-11T01:48:28;99841.50;;;-13.83;61.65
77869;BME280;67231;59.144;37.934;2023-03-11T01:50:55;99837.22;;;-13.75;62.36
77869;BME280;67231;59.144;37.934;2023-03-11T01:53:23;99849.97;;;-13.77;61.35
77869;BME280;67231;59.144;37.934;2023-03-11T01:55:50;99858.47;;;-13.84;61.74
77869;BME280;67231;59.144;37.934;2023-03-11T01:58:22;99854.25;;;-13.86;62.38
77869;BME280;67231;59.144;37.934;2023-03-11T02:00:49;99859.34;;;-13.86;62.35
77869;BME280;67231;59.144;37.934;2023-03-11T02:03:41;99856.81;;;-13.88;61.85
77869;BME280;67231;59.144;37.934;2023-03-11T02:06:11;99867.00;;;-13.85;61.68
77869;BME280;67231;59.144;37.934;2023-03-11T02:08:40;99862.75;;;-13.87;61.59
77869;BME280;67231;59.144;37.934;2023-03-11T02:11:11;99862.75;;;-13.90;62.62
77869;BME280;67231;59.144;37.934;2023-03-11T02:13:40;99865.31;;;-13.94;62.17
77869;BME280;67231;59.144;37.934;2023-03-11T02:16:07;99867.00;;;-13.91;61.52
77869;BME280;67231;59.144;37.934;2023-03-11T02:18:33;99864.47;;;-13.88;61.74
77869;BME280;67231;59.144;37.934;2023-03-11T02:23:45;99867.03;;;-13.96;62.28
77869;BME280;67231;59.144;37.934;2023-03-11T02:26:22;99875.50;;;-13.95;62.26
77869;BME280;67231;59.144;37.934;2023-03-11T02:28:52;99878.06;;;-13.94;61.53
77869;BME280;67231;59.144;37.934;2023-03-11T02:31:19;99872.09;;;-13.91;61.42
77869;BME280;67231;59.144;37.934;2023-03-11T02:33:48;99888.25;;;-13.94;61.51
77869;BME280;67231;59.144;37.934;2023-03-11T02:36:40;99882.31;;;-13.99;61.76
77869;BME280;67231;59.144;37.934;2023-03-11T02:39:09;99891.69;;;-14.01;62.74
77869;BME280;67231;59.144;37.934;2023-03-11T02:41:39;99878.94;;;-14.01;62.66
77869;BME280;67231;59.144;37.934;2023-03-11T02:44:10;99879.78;;;-13.99;62.96
77869;BME280;67231;59.144;37.934;2023-03-11T02:46:38;99876.38;;;-13.98;61.85
77869;BME280;67231;59.144;37.934;2023-03-11T02:49:06;99881.44;;;-13.92;61.95
77869;BME280;67231;59.144;37.934;2023-03-11T02:51:33;99887.41;;;-13.89;61.57
77869;BME280;67231;59.144;37.934;2023-03-11T02:54:03;99888.25;;;-13.90;61.96
77869;BME280;67231;59.144;37.934;2023-03-11T02:56:31;99890.81;;;-13.94;62.47
77869;BME280;67231;59.144;37.934;2023-03-11T02:58:58;99896.78;;;-13.98;62.55
77869;BME280;67231;59.144;37.934;2023-03-11T03:01:25;99889.13;;;-14.01;61.83
77869;BME280;67231;59.144;37.934;2023-03-11T03:03:51;99890.81;;;-14.00;62.15
77869;BME280;67231;59.144;37.934;2023-03-11T03:06:18;99887.41;;;-14.05;61.80
77869;BME280;67231;59.144;37.934;2023-03-11T03:08:44;99897.63;;;-14.16;62.25
77869;BME280;67231;59.144;37.934;2023-03-11T03:11:11;99901.03;;;-14.15;62.92
77869;BME280;67231;59.144;37.934;2023-03-11T03:13:39;99898.50;;;-14.12;61.96
77869;BME280;67231;59.144;37.934;2023-03-11T03:16:05;99899.31;;;-14.13;61.57
77869;BME280;67231;59.144;37.934;2023-03-11T03:18:32;99894.22;;;-14.13;61.93
77869;BME280;67231;59.144;37.934;2023-03-11T03:20:59;99894.22;;;-14.13;62.36
77869;BME280;67231;59.144;37.934;2023-03-11T03:23:26;99883.19;;;-14.12;62.29
77869;BME280;67231;59.144;37.934;2023-03-11T03:25:52;99883.19;;;-14.12;62.28
77869;BME280;67231;59.144;37.934;2023-03-11T03:28:18;99888.28;;;-14.12;62.72
77869;BME280;67231;59.144;37.934;2023-03-11T03:30:45;99890.84;;;-14.15;62.64
77869;BME280;67231;59.144;37.934;2023-03-11T03:33:13;99895.94;;;-14.15;62.07
77869;BME280;67231;59.144;37.934;2023-03-11T03:35:42;99899.31;;;-14.15;61.99
77869;BME280;67231;59.144;37.934;2023-03-11T03:38:14;99901.03;;;-14.21;62.63
77869;BME280;67231;59.144;37.934;2023-03-11T03:40:45;99907.00;;;-14.36;62.52
77869;BME280;67231;59.144;37.934;2023-03-11T03:43:11;99901.88;;;-14.55;63.73
77869;BME280;67231;59.144;37.934;2023-03-11T03:45:40;99911.22;;;-14.71;63.03
77869;BME280;67231;59.144;37.934;2023-03-11T03:48:06;99909.50;;;-14.86;62.96
77869;BME280;67231;59.144;37.934;2023-03-11T03:50:38;99907.78;;;-15.00;64.03
77869;BME280;67231;59.144;37.934;2023-03-11T03:53:04;99903.47;;;-15.11;62.52
77869;BME280;67231;59.144;37.934;2023-03-11T03:55:31;99911.06;;;-15.23;63.66
77869;BME280;67231;59.144;37.934;2023-03-11T03:57:58;99909.34;;;-15.32;63.70
77869;BME280;67231;59.144;37.934;2023-03-11T04:00:28;99911.84;;;-15.40;63.42
77869;BME280;67231;59.144;37.934;2023-03-11T04:02:59;99911.00;;;-15.42;64.00
77869;BME280;67231;59.144;37.934;2023-03-11T04:05:33;99899.13;;;-15.43;63.15
77869;BME280;67231;59.144;37.934;2023-03-11T04:08:00;99905.88;;;-15.52;62.59
77869;BME280;67231;59.144;37.934;2023-03-11T04:10:27;99893.13;;;-15.57;62.63
77869;BME280;67231;59.144;37.934;2023-03-11T04:12:53;99903.28;;;-15.60;62.93
77869;BME280;67231;59.144;37.934;2023-03-11T04:15:19;99900.72;;;-15.68;63.37
77869;BME280;67231;59.144;37.934;2023-03-11T04:17:47;99900.69;;;-15.72;63.69
77869;BME280;67231;59.144;37.934;2023-03-11T04:20:13;99906.59;;;-15.80;63.04
77869;BME280;67231;59.144;37.934;2023-03-11T04:22:42;99897.19;;;-15.95;62.49
77869;BME280;67231;59.144;37.934;2023-03-11T04:25:09;99895.47;;;-15.96;62.40
77869;BME280;67231;59.144;37.934;2023-03-11T04:27:36;99892.94;;;-15.97;62.62
77869;BME280;67231;59.144;37.934;2023-03-11T04:30:05;99892.91;;;-16.02;62.87
77869;BME280;67231;59.144;37.934;2023-03-11T04:32:32;99889.47;;;-16.07;62.37
77869;BME280;67231;59.144;37.934;2023-03-11T04:34:58;99891.97;;;-16.15;62.62
77869;BME280;67231;59.144;37.934;2023-03-11T04:37:28;99896.19;;;-16.17;63.28
77869;BME280;67231;59.144;37.934;2023-03-11T04:39:55;99890.22;;;-16.25;61.62
77869;BME280;67231;59.144;37.934;2023-03-11T04:42:21;99894.44;;;-16.27;62.70
77869;BME280;67231;59.144;37.934;2023-03-11T04:44:48;99893.56;;;-16.27;61.73
77869;BME280;67231;59.144;37.934;2023-03-11T04:47:15;99898.66;;;-16.26;62.58
77869;BME280;67231;59.144;37.934;2023-03-11T04:49:41;99899.56;;;-16.21;60.94
77869;BME280;67231;59.144;37.934;2023-03-11T04:52:07;99902.94;;;-16.22;60.95
77869;BME280;67231;59.144;37.934;2023-03-11T04:54:35;99906.75;;;-15.40;61.00
77869;BME280;67231;59.144;37.934;2023-03-11T04:57:01;99903.59;;;-14.15;59.84
77869;BME280;67231;59.144;37.934;2023-03-11T04:59:27;99907.94;;;-12.39;56.09
77869;BME280;67231;59.144;37.934;2023-03-11T05:01:53;99904.25;;;-10.58;53.39
77869;BME280;67231;59.144;37.934;2023-03-11T05:04:20;99896.22;;;-8.98;50.53
77869;BME280;67231;59.144;37.934;2023-03-11T05:06:47;99907.16;;;-7.46;49.71
77869;BME280;67231;59.144;37.934;2023-03-11T05:09:16;99908.84;;;-6.55;48.48
77869;BME280;67231;59.144;37.934;2023-03-11T05:11:43;99903.28;;;-5.90;48.62
77869;BME280;67231;59.144;37.934;2023-03-11T05:14:10;99914.75;;;-4.52;47.05
77869;BME280;67231;59.144;37.934;2023-03-11T05:16:37;99924.91;;;-3.40;46.08
77869;BME280;67231;59.144;37.934;2023-03-11T05:19:04;99925.41;;;-2.92;46.13
77869;BME280;67231;59.144;37.934;2023-03-11T05:21:53;99926.69;;;-1.90;45.71
77869;BME280;67231;59.144;37.934;2023-03-11T05:24:20;99930.63;;;-1.30;45.22
77869;BME280;67231;59.144;37.934;2023-03-11T05:26:46;99934.31;;;-0.51;44.08
77869;BME280;67231;59.144;37.934;2023-03-11T05:29:13;99932.41;;;0.45;43.33
77869;BME280;67231;59.144;37.934;2023-03-11T05:31:39;99930.19;;;1.39;41.66
77869;BME280;67231;59.144;37.934;2023-03-11T05:34:05;99950.09;;;2.11;40.74
77869;BME280;67231;59.144;37.934;2023-03-11T05:36:32;99939.94;;;3.10;38.69
77869;BME280;67231;59.144;37.934;2023-03-11T05:38:58;99947.38;;;3.67;38.04
77869;BME280;67231;59.144;37.934;2023-03-11T05:41:24;99940.25;;;4.17;37.29
77869;BME280;67231;59.144;37.934;2023-03-11T05:43:51;99938.59;;;4.51;35.83
77869;BME280;67231;59.144;37.934;2023-03-11T05:46:18;99946.63;;;4.72;36.35
77869;BME280;67231;59.144;37.934;2023-03-11T05:48:46;99943.94;;;5.08;35.76
77869;BME280;67231;59.144;37.934;2023-03-11T05:51:13;99943.00;;;5.87;34.98
77869;BME280;67231;59.144;37.934;2023-03-11T05:53:42;99933.91;;;6.55;34.00
77869;BME280;67231;59.144;37.934;2023-03-11T05:56:15;99950.16;;;7.34;33.25
77869;BME280;67231;59.144;37.934;2023-03-11T05:58:42;99939.16;;;7.79;32.56
77869;BME280;67231;59.144;37.934;2023-03-11T06:01:10;99942.22;;;7.84;32.30
77869;BME280;67231;59.144;37.934;2023-03-11T06:03:38;99944.41;;;7.59;32.61
77869;BME280;67231;59.144;37.934;2023-03-11T06:06:06;99939.44;;;7.95;31.58
77869;BME280;67231;59.144;37.934;2023-03-11T06:08:33;99937.94;;;8.42;30.57
77869;BME280;67231;59.144;37.934;2023-03-11T06:11:03;99948.78;;;8.38;30.15
77869;BME280;67231;59.144;37.934;2023-03-11T06:13:30;99943.94;;;8.53;29.74
77869;BME280;67231;59.144;37.934;2023-03-11T06:15:56;99947.81;;;8.20;30.04
77869;BME280;67231;59.144;37.934;2023-03-11T06:18:24;99943.94;;;8.44;29.60
77869;BME280;67231;59.144;37.934;2023-03-11T06:20:57;99940.28;;;8.74;28.39
77869;BME280;67231;59.144;37.934;2023-03-11T06:23:24;99942.63;;;8.87;28.27
77869;BME280;67231;59.144;37.934;2023-03-11T06:25:55;99951.69;;;9.59;27.33
77869;BME280;67231;59.144;37.934;2023-03-11T06:28:22;99951.50;;;9.43;27.58
77869;BME280;67231;59.144;37.934;2023-03-11T06:30:49;99956.53;;;9.36;27.57
77869;BME280;67231;59.144;37.934;2023-03-11T06:33:15;99953.28;;;9.05;27.57
77869;BME280;67231;59.144;37.934;2023-03-11T06:35:42;99960.72;;;8.91;28.02
77869;BME280;67231;59.144;37.934;2023-03-11T06:38:09;99963.94;;;9.88;26.65
77869;BME280;67231;59.144;37.934;2023-03-11T06:40:36;99960.53;;;10.32;26.27
77869;BME280;67231;59.144;37.934;2023-03-11T06:43:03;99956.31;;;10.57;25.97
77869;BME280;67231;59.144;37.934;2023-03-11T06:45:33;99965.88;;;10.68;25.55
77869;BME280;67231;59.144;37.934;2023-03-11T06:47:59;99972.00;;;10.94;25.01
77869;BME280;67231;59.144;37.934;2023-03-11T06:50:26;99980.31;;;10.91;24.92
77869;BME280;67231;59.144;37.934;2023-03-11T06:52:55;99975.78;;;10.84;24.59
77869;BME280;67231;59.144;37.934;2023-03-11T06:55:22;99984.03;;;11.07;24.34
77869;BME280;67231;59.144;37.934;2023-03-11T06:57:48;99966.13;;;11.09;23.90
77869;BME280;67231;59.144;37.934;2023-03-11T07:00:16;99969.06;;;11.24;24.06
77869;BME280;67231;59.144;37.934;2023-03-11T07:02:46;99963.94;;;11.30;23.83
77869;BME280;67231;59.144;37.934;2023-03-11T07:05:14;99972.84;;;11.98;23.84
77869;BME280;67231;59.144;37.934;2023-03-11T07:07:44;99967.97;;;11.85;23.19
77869;BME280;67231;59.144;37.934;2023-03-11T07:10:10;99972.13;;;11.80;23.76
77869;BME280;67231;59.144;37.934;2023-03-11T07:12:37;99973.88;;;11.97;23.26
77869;BME280;67231;59.144;37.934;2023-03-11T07:15:03;99971.53;;;11.94;23.09
77869;BME280;67231;59.144;37.934;2023-03-11T07:17:31;99966.25;;;12.52;22.61
77869;BME280;67231;59.144;37.934;2023-03-11T07:19:57;99974.28;;;12.68;22.14
77869;BME280;67231;59.144;37.934;2023-03-11T07:22:23;99981.41;;;12.35;22.48
77869;BME280;67231;59.144;37.934;2023-03-11T07:24:49;99972.44;;;12.44;22.47
77869;BME280;67231;59.144;37.934;2023-03-11T07:27:16;99967.41;;;12.82;21.66
77869;BME280;67231;59.144;37.934;2023-03-11T07:29:42;99971.25;;;12.96;21.25
77869;BME280;67231;59.144;37.934;2023-03-11T07:32:08;99968.56;;;13.04;21.34
77869;BME280;67231;59.144;37.934;2023-03-11T07:34:35;99953.28;;;12.82;21.68
77869;BME280;67231;59.144;37.934;2023-03-11T07:37:01;99955.09;;;12.89;21.78
77869;BME280;67231;59.144;37.934;2023-03-11T07:39:28;99951.09;;;13.02;21.78
77869;BME280;67231;59.144;37.934;2023-03-11T07:41:54;99952.38;;;13.14;21.73
77869;BME280;67231;59.144;37.934;2023-03-11T07:44:20;99953.13;;;12.83;22.08
77869;BME280;67231;59.144;37.934;2023-03-11T07:46:46;99951.47;;;13.46;21.52
77869;BME280;67231;59.144;37.934;2023-03-11T07:49:12;99949.13;;;14.14;21.07
77869;BME280;67231;59.144;37.934;2023-03-11T07:51:39;99947.34;;;14.53;20.37
77869;BME280;67231;59.144;37.934;2023-03-11T07:54:10;99945.00;;;14.73;19.80
77869;BME280;67231;59.144;37.934;2023-03-11T07:56:37;99938.72;;;14.43;20.66
77869;BME280;67231;59.144;37.934;2023-03-11T07:59:03;99943.63;;;14.54;19.99
77869;BME280;67231;59.144;37.934;2023-03-11T08:01:31;99949.47;;;14.57;19.39
77869;BME280;67231;59.144;37.934;2023-03-11T08:04:04;99942.25;;;14.43;19.69
77869;BME280;67231;59.144;37.934;2023-03-11T08:06:32;99941.25;;;14.21;19.88
77869;BME280;67231;59.144;37.934;2023-03-11T08:09:00;99938.34;;;14.08;19.82
77869;BME280;67231;59.144;37.934;2023-03-11T08:11:26;99945.69;;;13.74;19.73
77869;BME280;67231;59.144;37.934;2023-03-11T08:13:53;99934.75;;;13.13;19.85
77869;BME280;67231;59.144;37.934;2023-03-11T08:16:21;99934.31;;;12.44;19.92
77869;BME280;67231;59.144;37.934;2023-03-11T08:18:48;99928.75;;;11.88;19.67
77869;BME280;67231;59.144;37.934;2023-03-11T08:21:17;99937.38;;;11.30;20.17
77869;BME280;67231;59.144;37.934;2023-03-11T08:23:44;99937.13;;;10.27;20.71
77869;BME280;67231;59.144;37.934;2023-03-11T08:26:16;99935.94;;;9.86;21.46
77869;BME280;67231;59.144;37.934;2023-03-11T08:28:43;99931.88;;;9.63;21.30
77869;BME280;67231;59.144;37.934;2023-03-11T08:31:25;99930.34;;;9.05;20.81
77869;BME280;67231;59.144;37.934;2023-03-11T08:33:55;99935.09;;;7.75;21.36
77869;BME280;67231;59.144;37.934;2023-03-11T08:36:22;99926.00;;;6.02;22.95
77869;BME280;67231;59.144;37.934;2023-03-11T08:38:48;99933.38;;;4.74;24.12
77869;BME280;67231;59.144;37.934;2023-03-11T08:41:14;99922.03;;;3.78;24.95
77869;BME280;67231;59.144;37.934;2023-03-11T08:43:41;99928.72;;;3.21;25.44
77869;BME280;67231;59.144;37.934;2023-03-11T08:46:07;99924.84;;;2.63;26.26
77869;BME280;67231;59.144;37.934;2023-03-11T08:48:36;99934.09;;;2.15;26.54
77869;BME280;67231;59.144;37.934;2023-03-11T08:51:09;99937.09;;;1.40;27.23
77869;BME280;67231;59.144;37.934;2023-03-11T08:53:35;99915.88;;;1.03;27.43
77869;BME280;67231;59.144;37.934;2023-03-11T08:56:02;99950.19;;;0.83;27.87
77869;BME280;67231;59.144;37.934;2023-03-11T08:58:28;99916.94;;;0.56;28.71
77869;BME280;67231;59.144;37.934;2023-03-11T09:00:54;99922.13;;;0.42;28.73
77869;BME280;67231;59.144;37.934;2023-03-11T09:03:22;99915.78;;;0.01;29.49
77869;BME280;67231;59.144;37.934;2023-03-11T09:05:48;99911.59;;;-0.02;29.54
77869;BME280;67231;59.144;37.934;2023-03-11T09:08:14;99921.03;;;0.15;29.78
77869;BME280;67231;59.144;37.934;2023-03-11T09:10:41;99921.81;;;0.02;29.93
77869;BME280;67231;59.144;37.934;2023-03-11T09:13:07;99911.69;;;-0.19;30.12
77869;BME280;67231;59.144;37.934;2023-03-11T09:15:33;99894.75;;;-0.12;30.32
77869;BME280;67231;59.144;37.934;2023-03-11T09:18:01;99888.97;;;-0.17;30.02
77869;BME280;67231;59.144;37.934;2023-03-11T09:20:28;99892.50;;;-0.18;30.17
77869;BME280;67231;59.144;37.934;2023-03-11T09:22:54;99882.88;;;-0.32;30.97
77869;BME280;67231;59.144;37.934;2023-03-11T09:25:20;99894.47;;;-0.38;30.92
77869;BME280;67231;59.144;37.934;2023-03-11T09:27:46;99878.00;;;-0.70;31.52
77869;BME280;67231;59.144;37.934;2023-03-11T09:30:12;99881.44;;;-0.85;31.49
77869;BME280;67231;59.144;37.934;2023-03-11T09:32:39;99909.25;;;-0.86;31.65
77869;BME280;67231;59.144;37.934;2023-03-11T09:35:05;99883.22;;;-0.86;31.51
77869;BME280;67231;59.144;37.934;2023-03-11T09:37:31;99890.84;;;-0.83;31.77
77869;BME280;67231;59.144;37.934;2023-03-11T09:39:57;99878.84;;;-0.69;31.62
77869;BME280;67231;59.144;37.934;2023-03-11T09:42:39;99870.78;;;-0.49;31.83
77869;BME280;67231;59.144;37.934;2023-03-11T09:45:15;99868.91;;;-0.47;31.70
77869;BME280;67231;59.144;37.934;2023-03-11T09:48:09;99866.19;;;-0.29;31.42
77869;BME280;67231;59.144;37.934;2023-03-11T09:50:58;99859.94;;;0.20;31.11
77869;BME280;67231;59.144;37.934;2023-03-11T09:53:39;99845.25;;;0.62;30.70
77869;BME280;67231;59.144;37.934;2023-03-11T09:56:09;99850.28;;;0.79;30.21
77869;BME280;67231;59.144;37.934;2023-03-11T09:59:19;99841.41;;;0.96;30.29
77869;BME280;67231;59.144;37.934;2023-03-11T10:01:49;99839.06;;;1.33;30.26
77869;BME280;67231;59.144;37.934;2023-03-11T10:04:18;99838.50;;;1.42;29.51
77869;BME280;67231;59.144;37.934;2023-03-11T10:06:47;99823.28;;;1.62;29.67
77869;BME280;67231;59.144;37.934;2023-03-11T10:25:20;99798.94;;;1.61;29.71
77869;BME280;67231;59.144;37.934;2023-03-11T10:27:51;99788.31;;;1.77;29.40
77869;BME280;67231;59.144;37.934;2023-03-11T10:30:40;99791.31;;;1.71;29.52
77869;BME280;67231;59.144;37.934;2023-03-11T10:33:23;99787.00;;;1.57;29.63
77869;BME280;67231;59.144;37.934;2023-03-11T10:35:57;99790.19;;;1.35;29.33
77869;BME280;67231;59.144;37.934;2023-03-11T10:38:27;99778.81;;;1.22;29.48
77869;BME280;67231;59.144;37.934;2023-03-11T10:41:00;99767.91;;;1.15;29.23
77869;BME280;67231;59.144;37.934;2023-03-11T10:43:34;99761.44;;;1.08;29.20
77869;BME280;67231;59.144;37.934;2023-03-11T10:46:12;99761.34;;;1.09;29.63
77869;BME280;67231;59.144;37.934;2023-03-11T10:48:40;99752.47;;;0.98;29.98
77869;BME280;67231;59.144;37.934;2023-03-11T10:53:46;99739.34;;;0.85;29.73
77869;BME280;67231;59.144;37.934;2023-03-11T10:56:37;99721.91;;;1.00;29.66
77869;BME280;67231;59.144;37.934;2023-03-11T10:59:45;99725.63;;;0.96;29.50
77869;BME280;67231;59.144;37.934;2023-03-11T11:04:48;99710.72;;;0.42;29.29
77869;BME280;67231;59.144;37.934;2023-03-11T11:07:27;99707.19;;;0.28;29.31
77869;BME280;67231;59.144;37.934;2023-03-11T11:10:18;99697.69;;;0.27;29.16
77869;BME280;67231;59.144;37.934;2023-03-11T11:13:01;99695.75;;;0.31;29.37
77869;BME280;67231;59.144;37.934;2023-03-11T11:15:41;99682.78;;;0.44;28.92
77869;BME280;67231;59.144;37.934;2023-03-11T11:21:00;99678.81;;;0.51;29.13
77869;BME280;67231;59.144;37.934;2023-03-11T11:23:35;99672.69;;;0.52;28.71
77869;BME280;67231;59.144;37.934;2023-03-11T11:26:06;99676.69;;;0.43;28.88
77869;BME280;67231;59.144;37.934;2023-03-11T11:28:33;99674.69;;;0.34;29.30
77869;BME280;67231;59.144;37.934;2023-03-11T11:31:07;99668.44;;;0.22;29.50
77869;BME280;67231;59.144;37.934;2023-03-11T11:33:52;99655.41;;;0.08;29.37
77869;BME280;67231;59.144;37.934;2023-03-11T11:36:21;99666.88;;;0.05;29.58
77869;BME280;67231;59.144;37.934;2023-03-11T11:38:52;99643.03;;;0.11;29.30
77869;BME280;67231;59.144;37.934;2023-03-11T11:41:22;99650.84;;;0.11;29.53
77869;BME280;67231;59.144;37.934;2023-03-11T11:44:00;99638.28;;;0.04;29.94
77869;BME280;67231;59.144;37.934;2023-03-11T11:46:38;99638.44;;;0.15;30.08
77869;BME280;67231;59.144;37.934;2023-03-11T11:49:17;99633.41;;;0.26;30.15
77869;BME280;67231;59.144;37.934;2023-03-11T11:55:32;99622.22;;;0.66;29.61
77869;BME280;67231;59.144;37.934;2023-03-11T11:57:59;99617.56;;;0.57;29.24
77869;BME280;67231;59.144;37.934;2023-03-11T12:03:46;99600.47;;;0.38;29.89
77869;BME280;67231;59.144;37.934;2023-03-11T12:08:50;99600.22;;;0.28;30.11
77869;BME280;67231;59.144;37.934;2023-03-11T12:11:31;99593.47;;;0.11;30.12
77869;BME280;67231;59.144;37.934;2023-03-11T12:14:29;99580.72;;;-0.08;30.82
77869;BME280;67231;59.144;37.934;2023-03-11T12:17:01;99581.28;;;-0.17;30.72
77869;BME280;67231;59.144;37.934;2023-03-11T12:19:40;99588.66;;;-0.24;31.07
77869;BME280;67231;59.144;37.934;2023-03-11T12:27:44;99556.38;;;0.06;30.40
77869;BME280;67231;59.144;37.934;2023-03-11T12:30:27;99557.00;;;0.24;31.06
77869;BME280;67231;59.144;37.934;2023-03-11T12:33:03;99552.84;;;0.34;30.36
77869;BME280;67231;59.144;37.934;2023-03-11T12:35:32;99543.91;;;0.39;31.23
77869;BME280;67231;59.144;37.934;2023-03-11T12:40:57;99522.66;;;0.30;31.43
77869;BME280;67231;59.144;37.934;2023-03-11T12:48:41;99510.84;;;0.52;30.87
77869;BME280;67231;59.144;37.934;2023-03-11T12:54:38;99497.66;;;0.41;30.74
77869;BME280;67231;59.144;37.934;2023-03-11T13:00:22;99470.41;;;0.45;30.80
77869;BME280;67231;59.144;37.934;2023-03-11T13:08:22;99473.69;;;0.21;30.65
77869;BME280;67231;59.144;37.934;2023-03-11T13:10:53;99450.81;;;0.12;31.37
77869;BME280;67231;59.144;37.934;2023-03-11T13:13:35;99447.69;;;0.07;31.16
77869;BME280;67231;59.144;37.934;2023-03-11T13:18:39;99441.69;;;0.05;31.70
77869;BME280;67231;59.144;37.934;2023-03-11T13:27:09;99429.75;;;-0.12;31.63
77869;BME280;67231;59.144;37.934;2023-03-11T13:29:45;99426.63;;;-0.17;31.11
77869;BME280;67231;59.144;37.934;2023-03-11T13:41:17;99420.75;;;-0.21;31.42
77869;BME280;67231;59.144;37.934;2023-03-11T13:43:47;99402.34;;;-0.32;31.58
77869;BME280;67231;59.144;37.934;2023-03-11T13:48:46;99389.22;;;-0.58;31.03
77869;BME280;67231;59.144;37.934;2023-03-11T13:51:44;99395.41;;;-0.74;31.24
77869;BME280;67231;59.144;37.934;2023-03-11T13:56:50;99385.47;;;-0.96;31.21
77869;BME280;67231;59.144;37.934;2023-03-11T13:59:24;99375.16;;;-0.97;31.15
77869;BME280;67231;59.144;37.934;2023-03-11T14:02:13;99370.94;;;-1.00;32.60
77869;BME280;67231;59.144;37.934;2023-03-11T14:04:47;99365.09;;;-1.03;32.96
77869;BME280;67231;59.144;37.934;2023-03-11T14:07:33;99382.59;;;-1.05;33.38
77869;BME280;67231;59.144;37.934;2023-03-11T14:10:27;99351.53;;;-1.08;33.46
77869;BME280;67231;59.144;37.934;2023-03-11T14:13:06;99357.84;;;-1.13;33.36
77869;BME280;67231;59.144;37.934;2023-03-11T14:18:30;99347.84;;;-1.19;33.44
77869;BME280;67231;59.144;37.934;2023-03-11T14:20:57;99361.06;;;-1.22;33.56
77869;BME280;67231;59.144;37.934;2023-03-11T14:23:51;99323.13;;;-1.26;32.92
77869;BME280;67231;59.144;37.934;2023-03-11T14:26:44;99333.72;;;-1.29;33.09
77869;BME280;67231;59.144;37.934;2023-03-11T14:29:18;99327.03;;;-1.33;33.20
77869;BME280;67231;59.144;37.934;2023-03-11T14:31:46;99322.94;;;-1.37;33.02
77869;BME280;67231;59.144;37.934;2023-03-11T14:34:21;99329.25;;;-1.41;33.35
77869;BME280;67231;59.144;37.934;2023-03-11T14:36:52;99329.41;;;-1.44;33.29